FCBB

Details ICAO FCBB (BZV)
Name MAYA MAYA
Region Republic of the Congo
Timezone Africa/Brazzaville (UTC+1.0)
Plans Departing 79
Arriving 96
Stats Elevation 1,048 ft / 319 m (AMSL)
Location -4.251698° 15.253029°
Runways 1
Magnetic Variation 1.353° W
Sunrise 2017-12-14 04:44:06 UTC / 2017-12-14 05:44:06 Local
Sunset 2017-12-14 17:06:00 UTC / 2017-12-14 18:06:00 Local
Advertisement - Login to hide

Runways

ID Width Length Bearing (true) Bearing (mag) Surface Threshold Offset Overrun Length
05 148 ft / 45 m 10,849 ft / 3,307 m 49.91° 51.26° Asphalt 0 ft / 0 m 275 ft / 84 m
23 148 ft / 45 m 10,849 ft / 3,307 m 229.91° 231.26° Asphalt 0 ft / 0 m 275 ft / 84 m

Map

Weather


0- 5 10 15 20 25 30 35+ Temperature / ° C

Clouds and Precipitation
Forecast for 2017-12-14 18:00 UTC. Updated 22 minutes ago

Ground ~20,000 ft ~40,000 ft Winds

METAR

FCBB 141700Z 12006KT 9999 FEW004 BKN018 25/22 Q1012 NOSIG

TAF

TAF FCBB 141100Z 1412/1518 28004KT 8000 SCT010 OVC020 PROB40 1505/1508 4000 BR BECMG 1512/1514 SCT020 FEW030CB

Frequencies

Tower 121.10 MHz BRAZZAVILLE TWR
Tower 118.70 MHz BRAZZAVILLE TWR
Warning: Do not use this data for real-world aviation or navigation. No guarantee of current accuracy is given.